Weather at Kariba International Airport

Public forecast

Using degrees Celsius for public forecast. Weather courtesy of forecast.io.

Current aviation weather report (METAR) for Kariba International Airport

Report is more than 6 hours old.

Retrieved 2020/10/14 06:00 UTC (6 days ago):

FVKB 140600Z 00000KT CAVOK 26/18 Q1020

Aviation forecast (TAF) for Kariba International Airport

Forecast is more than 12 hours old.

Retrieved 2018/08/24 06:00 UTC (2 years ago):

TAF FVKB 240400Z 2406/2416 27005KT CAVOK